sensor_id;sensor_type;location;lat;lon;timestamp;pressure;altitude;pressure_sealevel;temperature;humidity
84795;BME280;75026;49.184;16.564;2024-01-30T00:00:00;100661.44;;;20.33;55.32
84795;BME280;75026;49.184;16.564;2024-01-30T00:05:02;100658.22;;;20.35;55.19
84795;BME280;75026;49.184;16.564;2024-01-30T00:10:04;100662.28;;;20.48;55.02
84795;BME280;75026;49.184;16.564;2024-01-30T00:15:07;100665.91;;;20.56;54.80
84795;BME280;75026;49.184;16.564;2024-01-30T00:20:10;100658.34;;;20.67;54.66
84795;BME280;75026;49.184;16.564;2024-01-30T00:25:11;100655.94;;;20.69;54.52
84795;BME280;75026;49.184;16.564;2024-01-30T00:30:12;100661.56;;;20.76;54.51
84795;BME280;75026;49.184;16.564;2024-01-30T00:35:13;100662.34;;;20.80;54.27
84795;BME280;75026;49.184;16.564;2024-01-30T00:40:14;100671.53;;;20.81;54.24
84795;BME280;75026;49.184;16.564;2024-01-30T00:45:16;100656.34;;;20.82;54.33
84795;BME280;75026;49.184;16.564;2024-01-30T00:50:17;100661.53;;;20.83;54.24
84795;BME280;75026;49.184;16.564;2024-01-30T00:55:18;100655.53;;;20.85;54.28
84795;BME280;75026;49.184;16.564;2024-01-30T01:00:19;100647.16;;;20.81;54.31
84795;BME280;75026;49.184;16.564;2024-01-30T01:05:21;100648.34;;;20.80;54.36
84795;BME280;75026;49.184;16.564;2024-01-30T01:10:22;100634.34;;;20.73;54.44
84795;BME280;75026;49.184;16.564;2024-01-30T01:15:23;100640.75;;;20.77;54.61
84795;BME280;75026;49.184;16.564;2024-01-30T01:20:24;100627.13;;;20.69;54.65
84795;BME280;75026;49.184;16.564;2024-01-30T01:25:25;100630.34;;;20.67;54.72
84795;BME280;75026;49.184;16.564;2024-01-30T01:30:25;100633.94;;;20.64;54.75
84795;BME280;75026;49.184;16.564;2024-01-30T01:35:26;100631.53;;;20.63;54.90
84795;BME280;75026;49.184;16.564;2024-01-30T01:40:28;100624.75;;;20.60;54.91
84795;BME280;75026;49.184;16.564;2024-01-30T01:45:29;100630.75;;;20.55;55.02
84795;BME280;75026;49.184;16.564;2024-01-30T01:50:30;100629.16;;;20.54;55.17
84795;BME280;75026;49.184;16.564;2024-01-30T01:55:31;100625.09;;;20.48;55.47
84795;BME280;75026;49.184;16.564;2024-01-30T02:00:32;100623.88;;;20.42;55.31
84795;BME280;75026;49.184;16.564;2024-01-30T02:05:34;100628.31;;;20.43;55.41
84795;BME280;75026;49.184;16.564;2024-01-30T02:10:34;100626.28;;;20.32;55.65
84795;BME280;75026;49.184;16.564;2024-01-30T02:15:35;100629.09;;;20.32;55.54
84795;BME280;75026;49.184;16.564;2024-01-30T02:20:37;100619.06;;;20.35;55.51
84795;BME280;75026;49.184;16.564;2024-01-30T02:25:40;100622.28;;;20.33;55.75
84795;BME280;75026;49.184;16.564;2024-01-30T02:30:47;100622.28;;;20.33;55.66
84795;BME280;75026;49.184;16.564;2024-01-30T02:35:48;100614.31;;;20.36;55.72
84795;BME280;75026;49.184;16.564;2024-01-30T02:40:49;100623.88;;;20.38;55.69
84795;BME280;75026;49.184;16.564;2024-01-30T02:45:50;100627.47;;;20.39;55.50
84795;BME280;75026;49.184;16.564;2024-01-30T02:50:51;100618.28;;;20.38;55.51
84795;BME280;75026;49.184;16.564;2024-01-30T02:55:52;100617.50;;;20.34;55.53
84795;BME280;75026;49.184;16.564;2024-01-30T03:00:53;100606.72;;;20.32;55.54
84795;BME280;75026;49.184;16.564;2024-01-30T03:05:54;100603.50;;;20.34;55.76
84795;BME280;75026;49.184;16.564;2024-01-30T03:10:54;100613.09;;;20.33;55.72
84795;BME280;75026;49.184;16.564;2024-01-30T03:15:55;100610.69;;;20.35;55.42
84795;BME280;75026;49.184;16.564;2024-01-30T03:20:56;100605.91;;;20.36;55.25
84795;BME280;75026;49.184;16.564;2024-01-30T03:25:57;100605.91;;;20.36;55.51
84795;BME280;75026;49.184;16.564;2024-01-30T03:30:58;100600.69;;;20.34;55.38
84795;BME280;75026;49.184;16.564;2024-01-30T03:36:03;100595.91;;;20.38;55.37
84795;BME280;75026;49.184;16.564;2024-01-30T03:41:07;100598.31;;;20.32;55.59
84795;BME280;75026;49.184;16.564;2024-01-30T03:46:09;100590.31;;;20.34;55.33
84795;BME280;75026;49.184;16.564;2024-01-30T03:51:09;100585.13;;;20.33;55.43
84795;BME280;75026;49.184;16.564;2024-01-30T03:56:15;100584.72;;;20.31;55.52
84795;BME280;75026;49.184;16.564;2024-01-30T04:01:15;100597.53;;;20.32;55.46
84795;BME280;75026;49.184;16.564;2024-01-30T04:06:16;100583.91;;;20.30;55.51
84795;BME280;75026;49.184;16.564;2024-01-30T04:11:20;100588.72;;;20.30;55.61
84795;BME280;75026;49.184;16.564;2024-01-30T04:16:21;100594.72;;;20.28;55.39
84795;BME280;75026;49.184;16.564;2024-01-30T04:21:22;100590.31;;;20.27;55.63
84795;BME280;75026;49.184;16.564;2024-01-30T04:26:23;100584.72;;;20.27;55.58
84795;BME280;75026;49.184;16.564;2024-01-30T04:31:24;100589.50;;;20.27;55.64
84795;BME280;75026;49.184;16.564;2024-01-30T04:36:25;100586.34;;;20.28;55.38
84795;BME280;75026;49.184;16.564;2024-01-30T04:41:26;100579.94;;;20.24;55.62
84795;BME280;75026;49.184;16.564;2024-01-30T04:46:29;100591.91;;;20.25;55.69
84795;BME280;75026;49.184;16.564;2024-01-30T04:51:30;100589.91;;;20.25;55.72
84795;BME280;75026;49.184;16.564;2024-01-30T04:56:30;100591.13;;;20.24;55.71
84795;BME280;75026;49.184;16.564;2024-01-30T05:01:32;100594.72;;;20.25;55.60
84795;BME280;75026;49.184;16.564;2024-01-30T05:06:33;100596.72;;;20.24;55.72
84795;BME280;75026;49.184;16.564;2024-01-30T05:11:37;100599.88;;;20.23;55.58
84795;BME280;75026;49.184;16.564;2024-01-30T05:16:39;100605.47;;;20.23;55.65
84795;BME280;75026;49.184;16.564;2024-01-30T05:21:41;100603.09;;;20.28;55.59
84795;BME280;75026;49.184;16.564;2024-01-30T05:26:42;100595.50;;;20.25;55.57
84795;BME280;75026;49.184;16.564;2024-01-30T05:31:43;100599.91;;;20.26;55.40
84795;BME280;75026;49.184;16.564;2024-01-30T05:36:44;100599.91;;;20.26;55.64
84795;BME280;75026;49.184;16.564;2024-01-30T05:41:44;100602.31;;;20.24;55.91
84795;BME280;75026;49.184;16.564;2024-01-30T05:46:45;100605.47;;;20.23;55.60
84795;BME280;75026;49.184;16.564;2024-01-30T05:51:46;100610.28;;;20.22;55.64
84795;BME280;75026;49.184;16.564;2024-01-30T05:56:47;100615.88;;;20.22;55.45
84795;BME280;75026;49.184;16.564;2024-01-30T06:01:48;100616.66;;;20.19;55.65
84795;BME280;75026;49.184;16.564;2024-01-30T06:06:49;100611.06;;;20.16;55.68
84795;BME280;75026;49.184;16.564;2024-01-30T06:11:50;100619.06;;;20.17;55.60
84795;BME280;75026;49.184;16.564;2024-01-30T06:16:51;100607.09;;;20.17;55.47
84795;BME280;75026;49.184;16.564;2024-01-30T06:21:52;100619.06;;;20.14;55.64
84795;BME280;75026;49.184;16.564;2024-01-30T06:26:53;100621.44;;;20.15;55.68
84795;BME280;75026;49.184;16.564;2024-01-30T06:31:54;100620.66;;;20.15;55.63
84795;BME280;75026;49.184;16.564;2024-01-30T06:36:55;100616.66;;;20.16;55.53
84795;BME280;75026;49.184;16.564;2024-01-30T06:41:56;100615.06;;;20.18;55.58
84795;BME280;75026;49.184;16.564;2024-01-30T06:46:56;100620.66;;;20.18;55.65
84795;BME280;75026;49.184;16.564;2024-01-30T06:51:57;100623.84;;;20.20;55.67
84795;BME280;75026;49.184;16.564;2024-01-30T06:56:58;100625.47;;;20.21;55.25
84795;BME280;75026;49.184;16.564;2024-01-30T07:01:59;100622.25;;;20.19;55.53
84795;BME280;75026;49.184;16.564;2024-01-30T07:07:00;100617.88;;;20.25;55.58
84795;BME280;75026;49.184;16.564;2024-01-30T07:12:01;100617.91;;;20.32;55.68
84795;BME280;75026;49.184;16.564;2024-01-30T07:17:02;100617.91;;;20.36;55.64
84795;BME280;75026;49.184;16.564;2024-01-30T07:22:03;100631.94;;;20.50;55.10
84795;BME280;75026;49.184;16.564;2024-01-30T07:27:06;100629.53;;;20.52;55.33
84795;BME280;75026;49.184;16.564;2024-01-30T07:32:07;100625.16;;;20.55;55.29
84795;BME280;75026;49.184;16.564;2024-01-30T07:37:08;100619.94;;;20.61;55.35
84795;BME280;75026;49.184;16.564;2024-01-30T07:42:09;100629.56;;;20.67;55.12
84795;BME280;75026;49.184;16.564;2024-01-30T07:47:10;100624.75;;;20.74;54.73
84795;BME280;75026;49.184;16.564;2024-01-30T07:52:11;100627.13;;;20.76;54.82
84795;BME280;75026;49.184;16.564;2024-01-30T07:57:11;100638.75;;;20.81;54.85
84795;BME280;75026;49.184;16.564;2024-01-30T08:02:13;100624.75;;;20.85;54.91
84795;BME280;75026;49.184;16.564;2024-01-30T08:07:14;100630.34;;;20.89;54.69
84795;BME280;75026;49.184;16.564;2024-01-30T08:12:15;100633.94;;;20.89;54.75
84795;BME280;75026;49.184;16.564;2024-01-30T08:17:16;100635.53;;;20.90;54.70
84795;BME280;75026;49.184;16.564;2024-01-30T08:22:17;100633.16;;;20.96;54.69
84795;BME280;75026;49.184;16.564;2024-01-30T08:27:17;100641.56;;;20.96;54.64
84795;BME280;75026;49.184;16.564;2024-01-30T08:32:18;100635.16;;;20.95;54.55
84795;BME280;75026;49.184;16.564;2024-01-30T08:37:19;100635.16;;;20.67;53.77
84795;BME280;75026;49.184;16.564;2024-01-30T08:42:20;100636.75;;;20.82;53.77
84795;BME280;75026;49.184;16.564;2024-01-30T08:47:23;100632.75;;;20.87;54.00
84795;BME280;75026;49.184;16.564;2024-01-30T08:52:23;100647.16;;;20.89;53.98
84795;BME280;75026;49.184;16.564;2024-01-30T08:57:25;100647.94;;;20.93;53.88
84795;BME280;75026;49.184;16.564;2024-01-30T09:02:29;100650.34;;;20.94;54.12
84795;BME280;75026;49.184;16.564;2024-01-30T09:07:30;100648.31;;;20.95;54.00
84795;BME280;75026;49.184;16.564;2024-01-30T09:12:30;100635.16;;;20.92;53.77
84795;BME280;75026;49.184;16.564;2024-01-30T09:17:31;100636.75;;;20.89;54.07
84795;BME280;75026;49.184;16.564;2024-01-30T09:22:33;100637.53;;;20.90;54.24
84795;BME280;75026;49.184;16.564;2024-01-30T09:27:34;100642.34;;;20.93;54.39
84795;BME280;75026;49.184;16.564;2024-01-30T09:32:35;100633.53;;;20.94;54.34
84795;BME280;75026;49.184;16.564;2024-01-30T09:37:36;100634.34;;;20.95;54.29
84795;BME280;75026;49.184;16.564;2024-01-30T09:42:37;100638.34;;;20.97;54.51
84795;BME280;75026;49.184;16.564;2024-01-30T09:47:42;100631.94;;;21.00;54.12
84795;BME280;75026;49.184;16.564;2024-01-30T09:52:47;100636.75;;;21.03;54.22
84795;BME280;75026;49.184;16.564;2024-01-30T09:57:48;100623.13;;;20.98;54.21
84795;BME280;75026;49.184;16.564;2024-01-30T10:02:49;100630.34;;;21.03;54.71
84795;BME280;75026;49.184;16.564;2024-01-30T10:07:53;100626.34;;;21.04;54.48
84795;BME280;75026;49.184;16.564;2024-01-30T10:12:54;100617.53;;;21.05;54.79
84795;BME280;75026;49.184;16.564;2024-01-30T10:17:55;100619.16;;;21.06;54.72
84795;BME280;75026;49.184;16.564;2024-01-30T10:22:56;100606.31;;;21.16;54.33
84795;BME280;75026;49.184;16.564;2024-01-30T10:27:58;100599.91;;;21.16;54.35
84795;BME280;75026;49.184;16.564;2024-01-30T10:32:59;100598.31;;;21.15;54.44
84795;BME280;75026;49.184;16.564;2024-01-30T10:38:00;100598.31;;;21.18;54.63
84795;BME280;75026;49.184;16.564;2024-01-30T10:43:02;100577.50;;;21.19;54.50
84795;BME280;75026;49.184;16.564;2024-01-30T10:48:07;100578.72;;;21.18;54.44
84795;BME280;75026;49.184;16.564;2024-01-30T10:53:10;100561.94;;;20.97;55.15
84795;BME280;75026;49.184;16.564;2024-01-30T10:58:11;100575.91;;;21.22;54.79
84795;BME280;75026;49.184;16.564;2024-01-30T11:03:13;100560.25;;;21.28;54.42
84795;BME280;75026;49.184;16.564;2024-01-30T11:08:14;100544.25;;;21.28;54.54
84795;BME280;75026;49.184;16.564;2024-01-30T11:13:15;100558.25;;;21.28;54.59
84795;BME280;75026;49.184;16.564;2024-01-30T11:18:24;100547.06;;;21.28;54.49
84795;BME280;75026;49.184;16.564;2024-01-30T11:23:26;100542.28;;;21.29;54.20
84795;BME280;75026;49.184;16.564;2024-01-30T11:28:32;100544.66;;;21.30;54.24
84795;BME280;75026;49.184;16.564;2024-01-30T11:33:34;100532.69;;;21.26;54.42
84795;BME280;75026;49.184;16.564;2024-01-30T11:38:35;100528.66;;;21.31;54.54
84795;BME280;75026;49.184;16.564;2024-01-30T11:43:36;100514.28;;;21.36;54.28
84795;BME280;75026;49.184;16.564;2024-01-30T11:48:39;100522.69;;;21.36;54.50
84795;BME280;75026;49.184;16.564;2024-01-30T11:53:41;100508.25;;;21.38;54.48
84795;BME280;75026;49.184;16.564;2024-01-30T11:58:43;100506.25;;;21.35;54.53
84795;BME280;75026;49.184;16.564;2024-01-30T12:03:51;100499.03;;;21.44;54.21
84795;BME280;75026;49.184;16.564;2024-01-30T12:08:59;100498.28;;;21.33;54.05
84795;BME280;75026;49.184;16.564;2024-01-30T12:14:00;100493.84;;;21.36;54.42
84795;BME280;75026;49.184;16.564;2024-01-30T12:19:01;100493.03;;;21.28;54.34
84795;BME280;75026;49.184;16.564;2024-01-30T12:24:03;100480.69;;;21.22;54.33
84795;BME280;75026;49.184;16.564;2024-01-30T12:29:04;100471.88;;;21.16;54.56
84795;BME280;75026;49.184;16.564;2024-01-30T12:34:05;100467.09;;;21.13;54.36
84795;BME280;75026;49.184;16.564;2024-01-30T12:39:06;100470.31;;;21.08;54.66
84795;BME280;75026;49.184;16.564;2024-01-30T12:44:07;100460.72;;;21.05;54.67
84795;BME280;75026;49.184;16.564;2024-01-30T12:49:08;100463.16;;;21.03;54.65
84795;BME280;75026;49.184;16.564;2024-01-30T12:54:09;100451.16;;;20.99;54.59
84795;BME280;75026;49.184;16.564;2024-01-30T12:59:10;100448.75;;;20.98;54.64
84795;BME280;75026;49.184;16.564;2024-01-30T13:04:11;100458.38;;;20.97;54.62
84795;BME280;75026;49.184;16.564;2024-01-30T13:09:12;100453.19;;;20.95;54.48
84795;BME280;75026;49.184;16.564;2024-01-30T13:14:13;100441.56;;;21.00;53.88
84795;BME280;75026;49.184;16.564;2024-01-30T13:19:17;100448.75;;;20.98;53.98
84795;BME280;75026;49.184;16.564;2024-01-30T13:24:18;100436.44;;;20.85;52.27
84795;BME280;75026;49.184;16.564;2024-01-30T13:29:21;100436.84;;;20.69;52.28
84795;BME280;75026;49.184;16.564;2024-01-30T13:34:22;100436.91;;;20.62;51.01
84795;BME280;75026;49.184;16.564;2024-01-30T13:39:23;100444.06;;;20.45;49.61
84795;BME280;75026;49.184;16.564;2024-01-30T13:44:24;100438.06;;;20.57;50.81
84795;BME280;75026;49.184;16.564;2024-01-30T13:49:25;100434.44;;;20.74;51.44
84795;BME280;75026;49.184;16.564;2024-01-30T13:54:27;100433.63;;;20.81;51.83
84795;BME280;75026;49.184;16.564;2024-01-30T13:59:28;100434.78;;;20.87;51.64
84795;BME280;75026;49.184;16.564;2024-01-30T14:04:38;100424.00;;;20.86;51.88
84795;BME280;75026;49.184;16.564;2024-01-30T14:09:48;100424.00;;;20.86;52.43
84795;BME280;75026;49.184;16.564;2024-01-30T14:14:49;100431.19;;;20.87;52.74
84795;BME280;75026;49.184;16.564;2024-01-30T14:19:50;100430.03;;;20.88;52.60
84795;BME280;75026;49.184;16.564;2024-01-30T14:24:51;100421.63;;;20.88;52.59
84795;BME280;75026;49.184;16.564;2024-01-30T14:29:52;100424.00;;;20.86;52.89
84795;BME280;75026;49.184;16.564;2024-01-30T14:34:53;100431.97;;;20.91;52.86
84795;BME280;75026;49.184;16.564;2024-01-30T14:39:54;100423.19;;;20.96;52.49
84795;BME280;75026;49.184;16.564;2024-01-30T14:44:54;100424.81;;;20.90;53.19
84795;BME280;75026;49.184;16.564;2024-01-30T14:49:55;100424.44;;;20.88;53.26
84795;BME280;75026;49.184;16.564;2024-01-30T14:54:57;100434.41;;;20.89;53.38
84795;BME280;75026;49.184;16.564;2024-01-30T14:59:58;100427.22;;;20.91;53.33
84795;BME280;75026;49.184;16.564;2024-01-30T15:04:59;100425.59;;;20.94;53.31
84795;BME280;75026;49.184;16.564;2024-01-30T15:10:00;100419.97;;;20.97;53.32
84795;BME280;75026;49.184;16.564;2024-01-30T15:15:01;100420.75;;;21.01;53.48
84795;BME280;75026;49.184;16.564;2024-01-30T15:20:02;100431.94;;;21.05;53.46
84795;BME280;75026;49.184;16.564;2024-01-30T15:25:05;100428.25;;;21.22;52.93
84795;BME280;75026;49.184;16.564;2024-01-30T15:30:07;100438.28;;;21.20;53.13
84795;BME280;75026;49.184;16.564;2024-01-30T15:35:09;100437.91;;;21.14;53.54
84795;BME280;75026;49.184;16.564;2024-01-30T15:40:11;100447.13;;;21.11;53.54
84795;BME280;75026;49.184;16.564;2024-01-30T15:45:12;100446.72;;;21.09;53.53
84795;BME280;75026;49.184;16.564;2024-01-30T15:50:13;100445.91;;;21.09;53.57
84795;BME280;75026;49.184;16.564;2024-01-30T15:55:14;100451.16;;;21.06;53.57
84795;BME280;75026;49.184;16.564;2024-01-30T16:00:16;100446.72;;;21.05;53.92
84795;BME280;75026;49.184;16.564;2024-01-30T16:05:16;100461.53;;;21.06;53.70
84795;BME280;75026;49.184;16.564;2024-01-30T16:10:17;100455.97;;;20.99;53.53
84795;BME280;75026;49.184;16.564;2024-01-30T16:15:19;100458.38;;;20.97;53.69
84795;BME280;75026;49.184;16.564;2024-01-30T16:20:19;100457.16;;;20.98;53.78
84795;BME280;75026;49.184;16.564;2024-01-30T16:25:20;100453.56;;;20.94;53.86
84795;BME280;75026;49.184;16.564;2024-01-30T16:30:23;100459.97;;;20.91;53.94
84795;BME280;75026;49.184;16.564;2024-01-30T16:35:24;100458.00;;;20.91;53.89
84795;BME280;75026;49.184;16.564;2024-01-30T16:40:25;100451.59;;;20.83;54.31
84795;BME280;75026;49.184;16.564;2024-01-30T16:45:26;100458.00;;;20.91;53.97
84795;BME280;75026;49.184;16.564;2024-01-30T16:50:27;100463.97;;;20.93;54.11
84795;BME280;75026;49.184;16.564;2024-01-30T16:55:28;100454.38;;;20.94;53.96
84795;BME280;75026;49.184;16.564;2024-01-30T17:00:29;100458.78;;;20.92;53.99
84795;BME280;75026;49.184;16.564;2024-01-30T17:05:30;100467.56;;;20.94;54.02
84795;BME280;75026;49.184;16.564;2024-01-30T17:10:32;100469.97;;;20.95;54.16
84795;BME280;75026;49.184;16.564;2024-01-30T17:15:33;100468.78;;;20.96;54.13
84795;BME280;75026;49.184;16.564;2024-01-30T17:20:37;100469.97;;;20.99;54.04
84795;BME280;75026;49.184;16.564;2024-01-30T17:25:38;100471.97;;;20.95;53.94
84795;BME280;75026;49.184;16.564;2024-01-30T17:30:39;100473.56;;;20.96;53.95
84795;BME280;75026;49.184;16.564;2024-01-30T17:35:40;100471.97;;;20.95;54.03
84795;BME280;75026;49.184;16.564;2024-01-30T17:40:41;100468.78;;;20.96;54.09
84795;BME280;75026;49.184;16.564;2024-01-30T17:45:42;100465.56;;;20.94;54.08
84795;BME280;75026;49.184;16.564;2024-01-30T17:50:44;100465.56;;;20.98;54.10
84795;BME280;75026;49.184;16.564;2024-01-30T17:55:45;100463.19;;;20.93;54.09
84795;BME280;75026;49.184;16.564;2024-01-30T18:00:46;100479.19;;;20.96;54.15
84795;BME280;75026;49.184;16.564;2024-01-30T18:05:47;100473.22;;;20.79;53.88
84795;BME280;75026;49.184;16.564;2024-01-30T18:10:48;100468.78;;;20.89;53.68
84795;BME280;75026;49.184;16.564;2024-01-30T18:15:50;100478.38;;;20.92;53.88
84795;BME280;75026;49.184;16.564;2024-01-30T18:20:51;100471.19;;;20.91;54.05
84795;BME280;75026;49.184;16.564;2024-01-30T18:25:52;100475.19;;;20.90;54.12
84795;BME280;75026;49.184;16.564;2024-01-30T18:31:00;100478.78;;;20.90;54.13
84795;BME280;75026;49.184;16.564;2024-01-30T18:36:01;100478.38;;;20.92;54.22
84795;BME280;75026;49.184;16.564;2024-01-30T18:41:02;100484.78;;;20.89;54.29
84795;BME280;75026;49.184;16.564;2024-01-30T18:46:03;100481.59;;;20.87;54.34
84795;BME280;75026;49.184;16.564;2024-01-30T18:51:05;100484.78;;;20.89;54.34
84795;BME280;75026;49.184;16.564;2024-01-30T18:56:06;100481.56;;;20.90;54.32
84795;BME280;75026;49.184;16.564;2024-01-30T19:01:07;100485.16;;;20.91;54.16
84795;BME280;75026;49.184;16.564;2024-01-30T19:06:09;100473.97;;;20.87;54.39
84795;BME280;75026;49.184;16.564;2024-01-30T19:11:20;100486.00;;;20.88;54.22
84795;BME280;75026;49.184;16.564;2024-01-30T19:16:21;100481.59;;;20.87;54.49
84795;BME280;75026;49.184;16.564;2024-01-30T19:21:22;100480.78;;;20.90;54.44
84795;BME280;75026;49.184;16.564;2024-01-30T19:26:23;100479.19;;;20.89;54.52
84795;BME280;75026;49.184;16.564;2024-01-30T19:31:24;100474.38;;;20.89;54.42
84795;BME280;75026;49.184;16.564;2024-01-30T19:36:25;100486.81;;;20.88;54.40
84795;BME280;75026;49.184;16.564;2024-01-30T19:41:29;100481.59;;;20.87;54.42
84795;BME280;75026;49.184;16.564;2024-01-30T19:46:30;100489.97;;;20.97;54.42
84795;BME280;75026;49.184;16.564;2024-01-30T19:51:32;100485.56;;;20.93;54.40
84795;BME280;75026;49.184;16.564;2024-01-30T19:56:33;100485.16;;;20.91;54.74
84795;BME280;75026;49.184;16.564;2024-01-30T20:01:34;100483.19;;;20.91;54.50
84795;BME280;75026;49.184;16.564;2024-01-30T20:06:35;100479.19;;;20.92;54.61
84795;BME280;75026;49.184;16.564;2024-01-30T20:11:36;100475.16;;;20.97;54.47
84795;BME280;75026;49.184;16.564;2024-01-30T20:16:38;100468.78;;;20.93;54.55
84795;BME280;75026;49.184;16.564;2024-01-30T20:21:39;100470.78;;;20.92;54.52
84795;BME280;75026;49.184;16.564;2024-01-30T20:26:41;100464.78;;;20.94;54.69
84795;BME280;75026;49.184;16.564;2024-01-30T20:31:41;100467.19;;;20.92;54.86
84795;BME280;75026;49.184;16.564;2024-01-30T20:36:42;100458.38;;;20.90;54.68
84795;BME280;75026;49.184;16.564;2024-01-30T20:41:44;100450.00;;;20.90;54.64
84795;BME280;75026;49.184;16.564;2024-01-30T20:46:46;100453.59;;;20.90;54.76
84795;BME280;75026;49.184;16.564;2024-01-30T20:51:47;100460.81;;;20.91;54.59
84795;BME280;75026;49.184;16.564;2024-01-30T20:56:48;100465.59;;;20.87;54.64
84795;BME280;75026;49.184;16.564;2024-01-30T21:01:49;100466.78;;;20.90;54.73
84795;BME280;75026;49.184;16.564;2024-01-30T21:06:50;100461.59;;;20.92;54.74
84795;BME280;75026;49.184;16.564;2024-01-30T21:11:51;100460.41;;;20.89;54.77
84795;BME280;75026;49.184;16.564;2024-01-30T21:16:52;100467.63;;;20.76;53.54
84795;BME280;75026;49.184;16.564;2024-01-30T21:21:53;100460.00;;;20.83;54.28
84795;BME280;75026;49.184;16.564;2024-01-30T21:26:54;100458.03;;;20.84;54.37
84795;BME280;75026;49.184;16.564;2024-01-30T21:31:55;100462.00;;;20.87;54.59
84795;BME280;75026;49.184;16.564;2024-01-30T21:36:56;100466.41;;;20.88;54.65
84795;BME280;75026;49.184;16.564;2024-01-30T21:41:56;100458.00;;;20.91;54.54
84795;BME280;75026;49.184;16.564;2024-01-30T21:46:58;100464.78;;;20.94;54.68
84795;BME280;75026;49.184;16.564;2024-01-30T21:51:59;100466.34;;;20.95;54.07
84795;BME280;75026;49.184;16.564;2024-01-30T21:57:05;100458.38;;;20.97;54.31
84795;BME280;75026;49.184;16.564;2024-01-30T22:02:06;100462.75;;;20.98;54.35
84795;BME280;75026;49.184;16.564;2024-01-30T22:07:07;100459.16;;;20.97;54.62
84795;BME280;75026;49.184;16.564;2024-01-30T22:12:08;100451.56;;;20.98;54.07
84795;BME280;75026;49.184;16.564;2024-01-30T22:17:09;100458.78;;;20.92;54.06
84795;BME280;75026;49.184;16.564;2024-01-30T22:22:10;100468.00;;;20.89;54.01
84795;BME280;75026;49.184;16.564;2024-01-30T22:27:11;100461.59;;;20.88;54.23
84795;BME280;75026;49.184;16.564;2024-01-30T22:32:11;100467.59;;;20.87;54.33
84795;BME280;75026;49.184;16.564;2024-01-30T22:37:12;100467.59;;;20.79;54.44
84795;BME280;75026;49.184;16.564;2024-01-30T22:42:13;100478.00;;;20.82;54.31
84795;BME280;75026;49.184;16.564;2024-01-30T22:47:14;100477.22;;;20.78;54.44
84795;BME280;75026;49.184;16.564;2024-01-30T22:52:15;100464.81;;;20.76;54.21
84795;BME280;75026;49.184;16.564;2024-01-30T22:57:16;100467.25;;;20.74;54.35
84795;BME280;75026;49.184;16.564;2024-01-30T23:02:17;100476.44;;;20.71;54.50
84795;BME280;75026;49.184;16.564;2024-01-30T23:07:17;100474.44;;;20.71;54.35
84795;BME280;75026;49.184;16.564;2024-01-30T23:12:18;100475.66;;;20.60;54.57
84795;BME280;75026;49.184;16.564;2024-01-30T23:17:19;100470.06;;;20.56;54.64
84795;BME280;75026;49.184;16.564;2024-01-30T23:22:20;100480.06;;;20.53;54.78
84795;BME280;75026;49.184;16.564;2024-01-30T23:27:21;100474.47;;;20.50;54.76
84795;BME280;75026;49.184;16.564;2024-01-30T23:32:22;100474.03;;;20.48;54.88
84795;BME280;75026;49.184;16.564;2024-01-30T23:37:23;100462.44;;;20.42;54.84
84795;BME280;75026;49.184;16.564;2024-01-30T23:42:24;100470.47;;;20.37;55.05
84795;BME280;75026;49.184;16.564;2024-01-30T23:47:25;100474.47;;;20.32;55.01
84795;BME280;75026;49.184;16.564;2024-01-30T23:52:27;100468.88;;;20.28;55.14
84795;BME280;75026;49.184;16.564;2024-01-30T23:57:28;100464.06;;;20.25;55.40
